首页
METAR-TAF:

METAR-TAF

机场 :

特拉布宗, 土耳其

纬度: 41-00N, 经度: 039-43E, 海拔: 35米

当前天气观测

该预报发布于26分钟前的13:20 UTC
风速6节,风向西,在西南西转西北之间变化
温度 15°C
湿度 67%
气压 1017 hPa
能见度10公里或以上
少量云层高于3500英尺
多云层高于10000英尺

METAR: LTCG 151320Z 28006KT 230V300 9999 FEW035 BKN100 15/09 Q1017 TEMPO -TSRA RMK RWY29 29008KT

时间: 16:46 (13:46 UTC)

预报

该预报发布于3小时和6分钟前的10:40 UTC
预报有效从15日的 12点(UTC)到 16日的 12点(UTC)
风速5节,风向
能见度10公里或以上
散云层高于3500英尺
多云层高于10000英尺
短暂存在
从 15日的 12点(UTC)到 15日的 15点(UTC)
风速10节,风向西
少量云层高于2000英尺, 积雨云.
多云层高于3300英尺
雷暴, 小雨
成为
从 15日的 20点(UTC)到 15日的 22点(UTC)
能见度10公里或以上
1500米以下无云,无积雨云

TAF: LTCG 151040Z 1512/1612 18005KT 9999 SCT035 BKN100 TEMPO 1512/1515 28010KT -TSRA FEW020CB BKN033 BECMG 1520/1522 CAVOK

超过4000个机场的气象观测和天气预报(METAR&TAF报告)。

可查询的气象台以黄色和红色小点在地图上表示。

将鼠标移到小点上方,可查看气象台名称。

然后点击查看天气观测和预报。

如需切换地图:点击带黑十字的绿色按钮放大地图;点击带横线的绿色按钮缩小地图;或者点击绿色箭头查看邻近地区的地图。


METAR-TAF: